createdAt,value
2023-01-26T00:00:01.023Z,1030.73
2023-01-26T00:10:02.209Z,1030.58
2023-01-26T00:20:01.064Z,1030.49
2023-01-26T00:30:01.457Z,1030.24
2023-01-26T00:40:01.075Z,1030.11
2023-01-26T00:50:01.406Z,1030.11
2023-01-26T01:00:01.424Z,1030.13
2023-01-26T01:10:01.304Z,1030.19
2023-01-26T01:20:01.642Z,1030.09
2023-01-26T01:30:01.026Z,1029.99
2023-01-26T01:40:01.339Z,1029.88
2023-01-26T01:50:01.449Z,1029.78
2023-01-26T02:00:01.553Z,1029.62
2023-01-26T02:10:02.406Z,1029.51
2023-01-26T02:20:02.107Z,1029.40
2023-01-26T02:30:02.527Z,1029.25
2023-01-26T02:40:01.925Z,1029.08
2023-01-26T02:50:01.902Z,1028.91
2023-01-26T03:00:00.982Z,1028.88
2023-01-26T03:10:01.343Z,1029.01
2023-01-26T03:20:01.993Z,1028.99
2023-01-26T03:30:01.358Z,1028.97
2023-01-26T03:40:02.307Z,1028.86
2023-01-26T03:50:00.237Z,1028.91
2023-01-26T04:00:03.590Z,1028.92
2023-01-26T04:10:01.003Z,1028.88
2023-01-26T04:20:01.052Z,1028.69
2023-01-26T04:30:02.282Z,1028.60
2023-01-26T04:40:00.995Z,1028.60
2023-01-26T04:50:02.616Z,1028.53
2023-01-26T05:00:01.023Z,1028.39
2023-01-26T05:10:01.079Z,1028.25
2023-01-26T05:20:00.931Z,1028.19
2023-01-26T05:30:02.232Z,1028.18
2023-01-26T05:40:01.053Z,1028.16
2023-01-26T05:50:00.237Z,1028.33
2023-01-26T06:00:02.360Z,1028.35
2023-01-26T06:10:02.382Z,1028.36
2023-01-26T06:20:00.833Z,1028.39
2023-01-26T06:30:01.456Z,1028.49
2023-01-26T06:40:01.060Z,1028.45
2023-01-26T06:50:01.116Z,1028.50
2023-01-26T07:00:00.778Z,1028.49
2023-01-26T07:10:00.288Z,1028.36
2023-01-26T07:20:00.756Z,1028.32
2023-01-26T07:30:01.577Z,1028.37
2023-01-26T07:40:01.875Z,1028.44
2023-01-26T07:50:01.048Z,1028.48
2023-01-26T08:00:00.870Z,1028.51
2023-01-26T08:10:01.090Z,1028.60
2023-01-26T08:20:01.174Z,1028.70
2023-01-26T08:30:01.123Z,1028.61
2023-01-26T08:40:01.115Z,1028.56
2023-01-26T08:50:01.050Z,1028.57
2023-01-26T09:00:01.254Z,1028.57
2023-01-26T09:10:01.281Z,1028.61
2023-01-26T09:20:01.386Z,1028.71
2023-01-26T09:30:01.339Z,1028.78
2023-01-26T09:40:00.776Z,1028.72
2023-01-26T09:50:01.132Z,1028.69
2023-01-26T10:00:00.899Z,1028.61
2023-01-26T10:10:01.154Z,1028.61
2023-01-26T10:20:01.058Z,1028.47
2023-01-26T10:30:01.062Z,1028.33
2023-01-26T10:40:01.141Z,1028.23
2023-01-26T10:50:01.355Z,1028.10
2023-01-26T11:00:01.530Z,1027.94
2023-01-26T11:10:01.373Z,1027.98
2023-01-26T11:20:01.043Z,1027.95
2023-01-26T11:30:01.108Z,1027.82
2023-01-26T11:40:02.352Z,1027.77
2023-01-26T11:50:00.815Z,1027.65
2023-01-26T12:00:00.812Z,1027.51
2023-01-26T12:10:03.432Z,1027.43
2023-01-26T12:20:00.825Z,1027.30
2023-01-26T12:30:01.094Z,1027.16
2023-01-26T12:40:01.253Z,1027.16
2023-01-26T12:50:01.109Z,1027.06
2023-01-26T13:00:00.816Z,1027.06
2023-01-26T13:10:02.457Z,1027.16
2023-01-26T13:20:03.048Z,1027.21
2023-01-26T13:30:01.056Z,1026.98
2023-01-26T13:40:01.116Z,1027.06
2023-01-26T13:50:01.112Z,1027.16
2023-01-26T14:00:01.507Z,1027.13
2023-01-26T14:10:01.741Z,1027.15
2023-01-26T14:20:01.309Z,1027.14
2023-01-26T14:30:00.789Z,1027.16
2023-01-26T14:40:01.038Z,1027.19
2023-01-26T14:50:01.311Z,1027.26
2023-01-26T15:00:00.212Z,1027.31
2023-01-26T15:10:00.918Z,1027.26
2023-01-26T15:20:01.264Z,1027.27
2023-01-26T15:30:01.360Z,1027.38
2023-01-26T15:40:01.222Z,1027.44
2023-01-26T15:50:03.073Z,1027.46
2023-01-26T16:00:01.843Z,1027.67
2023-01-26T16:10:01.454Z,1027.69
2023-01-26T16:20:00.852Z,1027.81
2023-01-26T16:30:01.155Z,1027.80
2023-01-26T16:40:01.122Z,1027.70
2023-01-26T16:50:00.885Z,1027.54
2023-01-26T17:00:01.131Z,1027.55
2023-01-26T17:10:00.929Z,1027.55
2023-01-26T17:20:12.674Z,1027.54
2023-01-26T17:30:00.852Z,1027.46
2023-01-26T17:40:00.888Z,1027.39
2023-01-26T17:50:01.366Z,1027.59
2023-01-26T18:00:00.975Z,1027.72
2023-01-26T18:10:01.120Z,1027.81
2023-01-26T18:20:00.860Z,1027.87
2023-01-26T18:30:00.775Z,1027.83
2023-01-26T18:40:00.980Z,1027.85
2023-01-26T18:50:01.176Z,1027.82
2023-01-26T19:00:01.028Z,1027.87
2023-01-26T19:10:01.363Z,1027.92
2023-01-26T19:20:01.029Z,1028.00
2023-01-26T19:30:01.019Z,1028.06
2023-01-26T19:40:01.335Z,1027.98
2023-01-26T19:50:01.079Z,1028.04
2023-01-26T20:00:01.038Z,1028.10
2023-01-26T20:10:01.376Z,1028.08
2023-01-26T20:20:01.077Z,1028.15
2023-01-26T20:30:01.744Z,1028.17
2023-01-26T20:40:01.353Z,1028.29
2023-01-26T20:50:02.019Z,1028.30
2023-01-26T21:00:01.319Z,1028.22
2023-01-26T21:10:01.718Z,1028.30
2023-01-26T21:20:01.261Z,1028.26
2023-01-26T21:30:01.242Z,1028.20
2023-01-26T21:40:01.008Z,1028.14
2023-01-26T21:50:01.045Z,1028.01
2023-01-26T22:00:01.294Z,1028.02
2023-01-26T22:10:01.307Z,1028.21
2023-01-26T22:20:01.212Z,1028.28
2023-01-26T22:30:01.301Z,1028.32
2023-01-26T22:40:00.999Z,1028.34
2023-01-26T22:50:01.135Z,1028.34
2023-01-26T23:00:00.954Z,1028.35
2023-01-26T23:10:01.223Z,1028.19
2023-01-26T23:20:01.227Z,1028.11
2023-01-26T23:30:03.179Z,1028.10
2023-01-26T23:40:03.125Z,1028.13
2023-01-26T23:50:01.493Z,1028.00
